Time;durP1;ratioP1;P1;durP2;ratioP2;P2;SDS_P1;SDS_P2;PMS_P1;PMS_P2;Temp;Humidity;BMP_temperature;BMP_pressure;BME280_temperature;BME280_humidity;BME280_pressure;Samples;Min_cycle;Max_cycle;Signal;HPM_P1;HPM_P2
2023/04/13 00:02:22;;;;;;;31.30;13.93;;;4.40;99.90;;;;;;5032796;28;20077;-75
2023/04/13 00:04:49;;;;;;;29.60;13.30;;;4.40;99.90;;;;;;5031448;28;20056;-73
2023/04/13 00:07:16;;;;;;;35.38;15.10;;;4.30;99.90;;;;;;5031183;28;20121;-73
2023/04/13 00:09:44;;;;;;;40.15;15.70;;;4.30;99.90;;;;;;5031996;28;20064;-74
2023/04/13 00:12:09;;;;;;;34.42;14.20;;;4.30;99.90;;;;;;5030912;28;20490;-75
2023/04/13 00:14:35;;;;;;;32.83;14.20;;;4.30;99.90;;;;;;5032209;28;20098;-74
2023/04/13 00:17:01;;;;;;;29.38;14.40;;;4.30;99.90;;;;;;5032173;28;20030;-73
2023/04/13 00:19:27;;;;;;;31.17;13.30;;;4.20;99.90;;;;;;5032518;28;20032;-75
2023/04/13 00:21:53;;;;;;;31.25;13.77;;;4.20;99.90;;;;;;5032413;28;20105;-72
2023/04/13 00:24:19;;;;;;;30.52;13.57;;;4.20;99.90;;;;;;5030880;28;20064;-74
2023/04/13 00:26:45;;;;;;;34.08;13.52;;;4.20;99.90;;;;;;5031208;28;20495;-74
2023/04/13 00:29:11;;;;;;;31.30;13.63;;;4.10;99.90;;;;;;5032168;28;20025;-74
2023/04/13 00:31:38;;;;;;;31.70;13.93;;;4.10;99.90;;;;;;5030367;28;20025;-74
2023/04/13 00:34:04;;;;;;;35.42;13.68;;;4.10;99.90;;;;;;5031624;28;20041;-75
2023/04/13 00:36:30;;;;;;;29.58;12.98;;;4.10;99.90;;;;;;5031848;28;20024;-75
2023/04/13 00:38:56;;;;;;;34.75;13.65;;;4.10;99.90;;;;;;5032336;28;20080;-74
2023/04/13 00:41:23;;;;;;;29.45;12.52;;;4.10;99.90;;;;;;5031282;28;20387;-74
2023/04/13 00:43:49;;;;;;;27.70;12.63;;;4.10;99.90;;;;;;5031377;28;20038;-74
2023/04/13 00:46:17;;;;;;;35.47;13.63;;;4.10;99.90;;;;;;5029767;28;20059;-75
2023/04/13 00:48:44;;;;;;;30.10;14.02;;;4.10;99.90;;;;;;5031232;28;20032;-74
2023/04/13 00:51:11;;;;;;;34.60;13.48;;;4.10;99.90;;;;;;5030270;28;20467;-75
2023/04/13 00:53:37;;;;;;;31.90;13.57;;;4.10;99.90;;;;;;5032080;28;20037;-75
2023/04/13 00:56:04;;;;;;;32.47;13.68;;;4.00;99.90;;;;;;5030495;28;20080;-76
2023/04/13 00:58:31;;;;;;;32.20;13.20;;;4.00;99.90;;;;;;5031911;28;20064;-76
2023/04/13 01:00:57;;;;;;;34.97;13.05;;;4.00;99.90;;;;;;5029685;28;20021;-74
2023/04/13 01:03:24;;;;;;;30.85;12.05;;;4.00;99.90;;;;;;5032091;28;20029;-74
2023/04/13 01:06:16;;;;;;;30.08;13.77;;;4.00;99.90;;;;;;5029983;28;20132;-75
2023/04/13 01:09:00;;;;;;;30.65;12.95;;;3.90;99.90;;;;;;5029289;28;20391;-74
2023/04/13 01:11:34;;;;;;;30.57;13.40;;;3.90;99.90;;;;;;5030432;28;20025;-73
2023/04/13 01:14:16;;;;;;;31.02;13.80;;;3.80;99.90;;;;;;5029645;28;20051;-75
2023/04/13 01:16:47;;;;;;;28.63;13.15;;;3.80;99.90;;;;;;5029458;28;20040;-74
2023/04/13 01:19:50;;;;;;;33.05;13.43;;;3.80;99.90;;;;;;5030731;28;20018;-74
2023/04/13 01:22:18;;;;;;;26.33;13.02;;;3.80;99.90;;;;;;5031350;28;20017;-74
2023/04/13 01:25:05;;;;;;;40.03;15.32;;;3.80;99.90;;;;;;5028755;28;20072;-74
2023/04/13 01:27:49;;;;;;;29.48;13.82;;;3.80;99.90;;;;;;5031151;28;20052;-74
2023/04/13 01:30:20;;;;;;;32.90;14.50;;;3.80;99.90;;;;;;5031832;28;20045;-74
2023/04/13 01:32:51;;;;;;;30.38;14.02;;;3.80;99.90;;;;;;5030561;28;20030;-75
2023/04/13 01:35:18;;;;;;;35.25;14.02;;;3.80;99.90;;;;;;5029367;28;20060;-73
2023/04/13 01:37:45;;;;;;;37.67;15.30;;;3.80;99.90;;;;;;5027697;28;20041;-74
2023/04/13 01:40:12;;;;;;;30.63;14.52;;;3.80;99.90;;;;;;5030911;28;20022;-75
2023/04/13 01:42:39;;;;;;;34.22;14.93;;;3.80;99.90;;;;;;5030915;28;20029;-74
2023/04/13 01:45:13;;;;;;;38.95;14.27;;;3.80;99.90;;;;;;5029806;28;20060;-75
2023/04/13 01:47:40;;;;;;;;;;;3.80;99.90;;;;;;5031174;28;20036;-75
2023/04/13 01:50:27;;;;;;;35.00;15.00;;;3.70;99.90;;;;;;5028905;28;19909;-72
2023/04/13 01:52:56;;;;;;;36.92;14.43;;;3.70;99.90;;;;;;5029774;28;20025;-75
2023/04/13 01:55:23;;;;;;;39.60;15.32;;;3.70;99.90;;;;;;5030460;28;20033;-74
2023/04/13 01:57:53;;;;;;;31.92;15.20;;;3.70;99.90;;;;;;5028708;28;20045;-74
2023/04/13 02:00:19;;;;;;;29.05;15.18;;;3.60;99.90;;;;;;5029039;28;20033;-74
2023/04/13 02:02:44;;;;;;;31.13;14.05;;;3.60;99.90;;;;;;5029346;28;20034;-73
2023/04/13 02:05:10;;;;;;;33.65;15.60;;;3.50;99.90;;;;;;5030524;28;20037;-74
2023/04/13 02:07:38;;;;;;;32.58;15.40;;;3.50;99.90;;;;;;5029254;28;20029;-74
2023/04/13 02:10:05;;;;;;;32.30;14.70;;;3.50;99.90;;;;;;5027769;28;20530;-73
2023/04/13 02:12:32;;;;;;;40.15;16.08;;;3.50;99.90;;;;;;5029528;28;20050;-74
2023/04/13 02:14:59;;;;;;;35.65;16.20;;;3.50;99.90;;;;;;5030369;28;20026;-76
2023/04/13 02:17:28;;;;;;;38.65;16.02;;;3.50;99.90;;;;;;5029351;28;20026;-76
2023/04/13 02:19:56;;;;;;;37.60;15.98;;;3.50;99.90;;;;;;5030630;28;20052;-74
2023/04/13 02:22:22;;;;;;;42.63;17.08;;;3.50;99.90;;;;;;5029601;28;20026;-73
2023/04/13 02:24:49;;;;;;;36.53;16.48;;;3.60;99.90;;;;;;5029918;28;20037;-75
2023/04/13 02:27:15;;;;;;;37.08;17.00;;;3.50;99.90;;;;;;5029018;28;20026;-74
2023/04/13 02:29:41;;;;;;;37.08;16.40;;;3.50;99.90;;;;;;5029566;28;20030;-74
2023/04/13 02:32:07;;;;;;;36.03;17.17;;;3.50;99.90;;;;;;5033470;28;20018;-77
2023/04/13 02:34:32;;;;;;;36.85;16.88;;;3.50;99.90;;;;;;5032307;28;20044;-74
2023/04/13 02:36:59;;;;;;;36.13;16.10;;;3.50;99.90;;;;;;5032557;28;20022;-73
2023/04/13 02:39:24;;;;;;;37.00;16.10;;;3.50;99.90;;;;;;5034205;28;20025;-75
2023/04/13 02:41:50;;;;;;;33.85;16.15;;;3.50;99.90;;;;;;5034457;28;20497;-74
2023/04/13 02:44:16;;;;;;;34.65;16.13;;;3.40;99.90;;;;;;5034859;28;20045;-75
2023/04/13 02:46:41;;;;;;;35.83;17.13;;;3.40;99.90;;;;;;5031904;28;20108;-75
2023/04/13 02:49:07;;;;;;;44.13;17.08;;;3.40;99.90;;;;;;5032351;28;20070;-74
2023/04/13 02:51:34;;;;;;;34.15;15.77;;;3.40;99.90;;;;;;5033697;28;20069;-74
2023/04/13 02:54:01;;;;;;;44.15;17.23;;;3.40;99.90;;;;;;5033622;28;20619;-74
2023/04/13 02:56:29;;;;;;;34.28;16.25;;;3.50;99.90;;;;;;5030914;28;20018;-73
2023/04/13 02:58:56;;;;;;;39.88;16.50;;;3.50;99.90;;;;;;5033725;28;20060;-75
2023/04/13 03:01:23;;;;;;;36.30;16.58;;;3.50;99.90;;;;;;5034018;28;20471;-75
2023/04/13 03:03:49;;;;;;;38.15;17.20;;;3.50;99.90;;;;;;5032567;28;20021;-73
2023/04/13 03:06:15;;;;;;;38.28;16.30;;;3.50;99.90;;;;;;5033701;28;20014;-75
2023/04/13 03:08:41;;;;;;;33.72;15.77;;;3.60;99.90;;;;;;5032027;28;20038;-75
2023/04/13 03:11:08;;;;;;;34.72;15.55;;;3.60;99.90;;;;;;5031042;28;20025;-75
2023/04/13 03:13:33;;;;;;;35.75;15.52;;;3.60;99.90;;;;;;5032302;28;20037;-74
2023/04/13 03:15:59;;;;;;;37.00;15.75;;;3.70;99.90;;;;;;5033998;28;20022;-74
2023/04/13 03:18:26;;;;;;;37.63;15.63;;;3.70;99.90;;;;;;5032497;28;20022;-75
2023/04/13 03:20:52;;;;;;;35.78;14.57;;;3.70;99.90;;;;;;5032998;28;20057;-74
2023/04/13 03:23:18;;;;;;;32.70;14.65;;;3.70;99.90;;;;;;5032309;28;20872;-74
2023/04/13 03:25:44;;;;;;;28.75;13.60;;;3.70;99.90;;;;;;5033039;28;20032;-74
2023/04/13 03:28:10;;;;;;;33.65;13.80;;;3.70;99.90;;;;;;5033235;28;20022;-74
2023/04/13 03:30:36;;;;;;;29.00;12.95;;;3.70;99.90;;;;;;5032525;28;20021;-73
2023/04/13 03:33:01;;;;;;;31.02;12.73;;;3.70;99.90;;;;;;5032810;28;20030;-75
2023/04/13 03:35:27;;;;;;;29.27;11.38;;;3.80;99.90;;;;;;5033190;28;20112;-74
2023/04/13 03:37:53;;;;;;;27.85;12.48;;;3.80;99.90;;;;;;5031707;28;20029;-73
2023/04/13 03:40:18;;;;;;;24.02;11.13;;;3.90;99.90;;;;;;5034128;28;20033;-75
2023/04/13 03:42:44;;;;;;;30.23;11.93;;;3.90;99.90;;;;;;5034004;28;20026;-74
2023/04/13 03:45:10;;;;;;;24.92;11.38;;;4.00;99.90;;;;;;5034046;28;20032;-75
2023/04/13 03:47:35;;;;;;;26.98;10.95;;;4.00;99.90;;;;;;5033012;28;20067;-74
2023/04/13 03:50:02;;;;;;;30.92;11.23;;;4.00;99.90;;;;;;5034158;28;20017;-75
2023/04/13 03:52:28;;;;;;;24.55;10.07;;;4.10;99.90;;;;;;5032857;28;20029;-74
2023/04/13 03:54:54;;;;;;;20.30;9.65;;;4.20;99.90;;;;;;5032667;28;20033;-75
2023/04/13 03:57:21;;;;;;;27.95;9.75;;;4.20;99.90;;;;;;5034477;28;20114;-75
2023/04/13 03:59:47;;;;;;;19.75;8.38;;;4.30;99.90;;;;;;5034006;28;20445;-71
2023/04/13 04:02:12;;;;;;;23.38;9.65;;;4.30;99.90;;;;;;5032550;28;20025;-75
2023/04/13 04:04:38;;;;;;;20.90;8.40;;;4.40;99.90;;;;;;5033979;28;20085;-74
2023/04/13 04:07:03;;;;;;;20.15;9.27;;;4.50;99.90;;;;;;5033554;28;20022;-77
2023/04/13 04:09:29;;;;;;;20.95;9.05;;;4.60;99.90;;;;;;5030896;28;20060;-76
2023/04/13 04:11:55;;;;;;;21.25;9.05;;;4.70;99.90;;;;;;5034090;28;20037;-76
2023/04/13 04:14:22;;;;;;;28.20;8.27;;;4.80;99.90;;;;;;5031024;28;20890;-74
2023/04/13 04:16:47;;;;;;;19.33;7.55;;;4.80;99.90;;;;;;5033270;28;20038;-75
2023/04/13 04:19:13;;;;;;;19.05;8.35;;;4.80;99.90;;;;;;5033584;28;20109;-75
2023/04/13 04:21:43;;;;;;;19.35;8.32;;;4.90;99.90;;;;;;5033313;28;20064;-72
2023/04/13 04:24:19;;;;;;;17.60;6.85;;;4.90;99.90;;;;;;5032396;28;20116;-74
2023/04/13 04:26:49;;;;;;;16.77;7.63;;;5.00;99.90;;;;;;5031909;28;20038;-73
2023/04/13 04:29:21;;;;;;;17.50;7.25;;;4.90;99.90;;;;;;5032968;28;20036;-72
2023/04/13 04:31:51;;;;;;;14.90;7.57;;;4.90;99.90;;;;;;5033382;28;20060;-71
2023/04/13 04:34:18;;;;;;;18.48;7.25;;;5.00;99.90;;;;;;5032737;28;20097;-71
2023/04/13 04:36:50;;;;;;;14.05;6.97;;;5.00;99.90;;;;;;5033256;28;20030;-70
2023/04/13 04:39:21;;;;;;;16.90;5.30;;;5.00;99.90;;;;;;5033325;28;20108;-73
2023/04/13 04:41:53;;;;;;;19.65;7.15;;;5.00;99.90;;;;;;5032967;28;20411;-74
2023/04/13 04:44:29;;;;;;;20.55;7.95;;;5.10;99.90;;;;;;5027126;28;20021;-71
2023/04/13 04:46:58;;;;;;;16.70;6.90;;;5.00;99.90;;;;;;5031779;28;20390;-72
2023/04/13 04:49:24;;;;;;;15.05;6.65;;;5.00;99.90;;;;;;5031843;28;20052;-72
2023/04/13 04:51:50;;;;;;;16.75;6.70;;;5.00;99.90;;;;;;5032309;28;20053;-72
2023/04/13 04:54:17;;;;;;;14.07;7.28;;;5.10;99.90;;;;;;5031269;28;20079;-72
2023/04/13 04:56:44;;;;;;;22.58;6.40;;;5.10;99.90;;;;;;5032417;28;20188;-71
2023/04/13 04:59:09;;;;;;;17.02;8.45;;;5.10;99.90;;;;;;5029907;28;20032;-74
2023/04/13 05:01:35;;;;;;;15.63;6.70;;;5.10;99.90;;;;;;5032392;28;20030;-73
2023/04/13 05:04:01;;;;;;;14.80;6.25;;;5.20;99.90;;;;;;5032776;28;20066;-73
2023/04/13 05:06:31;;;;;;;10.77;5.68;;;5.20;99.90;;;;;;5031983;28;20052;-73
2023/04/13 05:09:00;;;;;;;8.27;3.85;;;5.20;99.90;;;;;;5032474;28;20042;-72
2023/04/13 05:11:27;;;;;;;18.10;6.60;;;5.20;99.90;;;;;;5031216;28;20068;-73
2023/04/13 05:13:57;;;;;;;14.25;6.15;;;5.30;99.90;;;;;;5030541;28;20037;-73
2023/04/13 05:16:23;;;;;;;17.45;6.93;;;5.30;99.90;;;;;;5031949;28;20017;-73
2023/04/13 05:18:49;;;;;;;14.50;5.55;;;5.30;99.90;;;;;;5031273;28;20616;-72
2023/04/13 05:21:15;;;;;;;18.83;6.18;;;5.30;99.90;;;;;;5030028;28;20046;-72
2023/04/13 05:23:41;;;;;;;10.57;4.50;;;5.40;99.90;;;;;;5032776;28;20026;-71
2023/04/13 05:26:10;;;;;;;12.55;4.28;;;5.40;99.90;;;;;;5032717;28;20040;-71
2023/04/13 05:28:37;;;;;;;17.50;5.82;;;5.50;99.90;;;;;;5029792;28;20033;-72
2023/04/13 05:31:03;;;;;;;13.13;5.35;;;5.50;99.90;;;;;;5030372;28;20034;-73
2023/04/13 05:33:29;;;;;;;13.18;3.58;;;5.50;99.90;;;;;;5029206;28;20053;-73
2023/04/13 05:35:56;;;;;;;11.13;4.47;;;5.50;99.90;;;;;;5032459;28;20112;-73
2023/04/13 05:38:22;;;;;;;11.93;5.30;;;5.50;99.90;;;;;;5032188;28;20033;-72
2023/04/13 05:40:48;;;;;;;13.82;5.38;;;5.60;99.90;;;;;;5030787;28;20566;-71
2023/04/13 05:43:14;;;;;;;6.90;4.10;;;5.50;99.90;;;;;;5030806;28;20021;-73
2023/04/13 05:45:40;;;;;;;9.98;4.85;;;5.60;99.90;;;;;;5027817;28;20089;-72
2023/04/13 05:48:05;;;;;;;10.50;4.72;;;5.60;99.90;;;;;;5029025;28;20479;-73
2023/04/13 05:50:31;;;;;;;11.82;4.68;;;5.60;99.90;;;;;;5029703;28;20032;-72
2023/04/13 05:52:58;;;;;;;10.50;4.78;;;5.70;99.90;;;;;;5028277;28;20029;-72
2023/04/13 05:55:25;;;;;;;13.88;5.25;;;5.70;99.90;;;;;;5030176;28;20774;-71
2023/04/13 05:57:50;;;;;;;14.05;5.18;;;5.70;99.90;;;;;;5031317;28;20026;-70
2023/04/13 06:00:18;;;;;;;10.68;5.28;;;5.70;99.90;;;;;;5031338;28;20080;-71
2023/04/13 06:02:47;;;;;;;19.95;5.10;;;5.70;99.90;;;;;;5031383;28;20105;-74
2023/04/13 06:05:13;;;;;;;15.50;5.47;;;5.70;99.90;;;;;;5030786;28;20021;-70
2023/04/13 06:07:38;;;;;;;14.07;5.32;;;5.80;99.90;;;;;;5031447;28;20497;-71
2023/04/13 06:10:05;;;;;;;11.63;5.93;;;5.80;99.90;;;;;;5029659;28;20155;-73
2023/04/13 06:12:30;;;;;;;13.45;4.95;;;5.70;99.90;;;;;;5032048;28;20025;-74
2023/04/13 06:14:56;;;;;;;12.30;4.82;;;5.70;99.90;;;;;;5032202;28;20034;-71
2023/04/13 06:17:22;;;;;;;9.95;4.03;;;5.70;99.90;;;;;;5031937;28;20061;-72
2023/04/13 06:19:47;;;;;;;12.85;4.18;;;5.70;99.90;;;;;;5031117;28;20057;-71
2023/04/13 06:22:13;;;;;;;15.20;4.65;;;5.70;99.90;;;;;;5030573;28;20026;-74
2023/04/13 06:24:39;;;;;;;7.60;3.03;;;5.70;99.90;;;;;;5031592;28;20022;-70
2023/04/13 06:27:04;;;;;;;13.45;4.20;;;5.80;99.90;;;;;;5030563;28;20060;-72
2023/04/13 06:29:30;;;;;;;11.32;4.45;;;5.80;99.90;;;;;;5032401;28;20021;-72
2023/04/13 06:31:56;;;;;;;10.77;4.15;;;5.80;99.90;;;;;;5031590;28;20033;-70
2023/04/13 06:34:22;;;;;;;21.05;4.57;;;6.00;99.90;;;;;;5031850;28;20128;-71
2023/04/13 06:36:47;;;;;;;12.30;4.82;;;5.90;99.90;;;;;;5030366;28;20018;-71
2023/04/13 06:39:13;;;;;;;12.23;4.15;;;5.90;99.90;;;;;;5031183;28;20029;-72
2023/04/13 06:41:38;;;;;;;12.15;4.25;;;6.00;99.90;;;;;;5032125;28;20073;-71
2023/04/13 06:44:04;;;;;;;16.83;4.40;;;6.00;99.90;;;;;;5030147;28;20038;-71
2023/04/13 06:46:30;;;;;;;11.30;3.60;;;6.00;99.90;;;;;;5030359;28;20025;-71
2023/04/13 06:48:55;;;;;;;13.43;4.47;;;6.00;99.90;;;;;;5031842;28;20435;-71
2023/04/13 06:51:21;;;;;;;9.45;4.05;;;6.10;99.90;;;;;;5028732;28;21438;-72
2023/04/13 06:53:46;;;;;;;11.55;3.78;;;6.10;99.90;;;;;;5030673;28;20148;-71
2023/04/13 06:56:12;;;;;;;8.15;3.80;;;6.10;99.90;;;;;;5028991;28;20037;-73
2023/04/13 06:58:37;;;;;;;10.25;3.38;;;6.20;99.90;;;;;;5030519;28;20025;-72
2023/04/13 07:01:04;;;;;;;9.07;3.80;;;6.20;99.90;;;;;;5029534;28;20045;-74
2023/04/13 07:03:30;;;;;;;10.15;4.30;;;6.30;99.90;;;;;;5031516;28;20048;-74
2023/04/13 07:05:56;;;;;;;13.02;4.60;;;6.30;99.90;;;;;;5029682;28;20029;-72
2023/04/13 07:08:22;;;;;;;10.18;5.10;;;6.30;99.90;;;;;;5031523;28;20463;-73
2023/04/13 07:10:52;;;;;;;13.35;4.95;;;6.30;99.90;;;;;;5029868;28;20025;-73
2023/04/13 07:13:18;;;;;;;10.43;4.30;;;6.50;99.90;;;;;;5026641;28;20026;-71
2023/04/13 07:15:43;;;;;;;13.15;4.40;;;6.60;99.90;;;;;;5029255;28;20060;-72
2023/04/13 07:18:09;;;;;;;13.13;5.78;;;6.60;99.90;;;;;;5032420;28;20033;-71
2023/04/13 07:20:35;;;;;;;10.98;5.25;;;6.70;99.90;;;;;;5033444;28;20029;-71
2023/04/13 07:23:01;;;;;;;13.18;5.32;;;6.80;99.90;;;;;;5033717;28;20018;-74
2023/04/13 07:25:26;;;;;;;10.35;4.82;;;6.80;99.90;;;;;;5033087;28;20064;-75
2023/04/13 07:27:52;;;;;;;14.23;6.22;;;6.80;99.90;;;;;;5029497;28;20184;-73
2023/04/13 07:30:17;;;;;;;10.73;5.90;;;6.90;99.90;;;;;;5031088;28;20026;-73
2023/04/13 07:32:43;;;;;;;12.60;6.38;;;6.90;99.90;;;;;;5033259;28;20030;-74
2023/04/13 07:35:08;;;;;;;14.27;6.05;;;6.90;99.90;;;;;;5033940;28;20479;-74
2023/04/13 07:37:34;;;;;;;18.27;6.13;;;6.90;99.90;;;;;;5033349;28;20038;-74
2023/04/13 07:40:00;;;;;;;14.23;7.00;;;6.90;99.90;;;;;;5034968;28;20160;-70
2023/04/13 07:42:25;;;;;;;15.85;7.68;;;6.90;99.90;;;;;;5033328;28;20025;-73
2023/04/13 07:44:57;;;;;;;16.38;8.07;;;7.00;99.90;;;;;;5032572;28;20026;-73
2023/04/13 07:47:23;;;;;;;17.77;8.48;;;7.10;99.90;;;;;;5031385;28;20089;-73
2023/04/13 07:49:49;;;;;;;18.33;8.68;;;7.20;99.90;;;;;;5044631;28;20041;-74
2023/04/13 07:52:14;;;;;;;18.75;9.25;;;7.20;99.90;;;;;;5032700;28;20030;-73
2023/04/13 07:54:40;;;;;;;21.67;11.02;;;7.30;99.90;;;;;;5031452;28;20055;-69
2023/04/13 07:57:05;;;;;;;15.85;8.73;;;7.30;99.90;;;;;;5034460;28;20025;-72
2023/04/13 07:59:31;;;;;;;18.10;8.77;;;7.50;99.90;;;;;;5032170;28;20025;-75
2023/04/13 08:01:57;;;;;;;16.83;7.85;;;7.60;99.90;;;;;;5032680;28;20029;-71
2023/04/13 08:04:23;;;;;;;11.52;6.20;;;7.60;99.90;;;;;;5032990;28;20383;-71
2023/04/13 08:06:48;;;;;;;11.75;6.00;;;7.60;99.90;;;;;;5033768;28;20026;-70
2023/04/13 08:09:14;;;;;;;12.05;6.35;;;7.70;99.90;;;;;;5031744;28;20058;-67
2023/04/13 08:11:41;;;;;;;13.20;5.60;;;7.70;99.90;;;;;;5034009;28;20026;-69
2023/04/13 08:14:08;;;;;;;16.80;5.57;;;7.90;99.90;;;;;;5032274;28;20033;-70
2023/04/13 08:16:34;;;;;;;12.57;5.75;;;8.00;99.90;;;;;;5030132;28;20014;-68
2023/04/13 08:19:00;;;;;;;10.70;5.40;;;8.10;99.90;;;;;;5033470;28;20049;-69
2023/04/13 08:21:27;;;;;;;15.07;5.88;;;8.20;99.90;;;;;;5032985;28;20037;-71
2023/04/13 08:23:53;;;;;;;9.15;5.45;;;8.20;99.90;;;;;;5033056;28;20052;-70
2023/04/13 08:26:20;;;;;;;10.57;5.43;;;8.30;99.90;;;;;;5030554;28;20049;-67
2023/04/13 08:28:47;;;;;;;9.93;5.10;;;8.20;99.90;;;;;;5032335;28;20038;-67
2023/04/13 08:31:13;;;;;;;14.43;6.53;;;8.30;99.90;;;;;;5032813;28;20518;-68
2023/04/13 08:33:39;;;;;;;13.48;6.13;;;8.30;99.90;;;;;;5033080;28;20479;-69
2023/04/13 08:36:05;;;;;;;13.85;7.15;;;8.40;99.90;;;;;;5033818;28;20036;-68
2023/04/13 08:38:32;;;;;;;13.50;6.65;;;8.50;99.90;;;;;;5033343;28;20034;-72
2023/04/13 08:40:58;;;;;;;11.40;6.85;;;8.50;99.90;;;;;;5030687;28;20050;-73
2023/04/13 08:43:24;;;;;;;11.00;5.78;;;8.60;99.90;;;;;;5033566;28;20036;-72
2023/04/13 08:45:50;;;;;;;14.90;6.80;;;8.60;99.90;;;;;;5031214;28;20458;-72
2023/04/13 08:48:18;;;;;;;12.13;6.75;;;8.80;99.90;;;;;;5032342;28;20029;-71
2023/04/13 08:50:44;;;;;;;12.45;6.00;;;8.90;99.90;;;;;;5033042;28;20107;-69
2023/04/13 08:53:10;;;;;;;13.27;6.80;;;9.00;99.90;;;;;;5033071;28;20068;-72
2023/04/13 08:55:44;;;;;;;13.48;6.50;;;9.00;99.90;;;;;;5032145;28;20401;-70
2023/04/13 08:58:12;;;;;;;12.48;5.93;;;8.90;99.90;;;;;;5031014;28;20026;-69
2023/04/13 09:00:40;;;;;;;14.02;5.57;;;8.90;99.90;;;;;;5031331;28;20084;-71
2023/04/13 09:03:09;;;;;;;13.63;6.07;;;8.80;99.90;;;;;;5032914;28;20025;-70
2023/04/13 09:05:39;;;;;;;11.60;6.18;;;8.80;99.90;;;;;;5032890;28;20109;-72
2023/04/13 09:08:06;;;;;;;9.70;6.00;;;8.90;99.90;;;;;;5032801;28;20120;-70
2023/04/13 09:10:32;;;;;;;9.10;5.68;;;9.10;99.90;;;;;;5031333;28;20018;-71
2023/04/13 09:12:59;;;;;;;12.73;5.65;;;9.30;99.90;;;;;;5033021;28;20026;-72
2023/04/13 09:15:25;;;;;;;7.78;4.70;;;9.40;99.90;;;;;;5030742;28;20037;-72
2023/04/13 09:17:51;;;;;;;9.73;5.00;;;9.40;99.90;;;;;;5032594;28;20085;-68
2023/04/13 09:20:22;;;;;;;9.73;4.78;;;9.50;99.90;;;;;;5032642;28;20032;-70
2023/04/13 09:22:48;;;;;;;15.55;5.00;;;9.70;99.90;;;;;;5030354;28;20034;-74
2023/04/13 09:25:25;;;;;;;7.15;3.78;;;9.80;99.90;;;;;;5032502;28;20374;-71
2023/04/13 09:27:51;;;;;;;10.52;4.72;;;9.80;99.90;;;;;;5031714;28;20025;-71
2023/04/13 09:30:21;;;;;;;6.53;3.75;;;9.70;99.90;;;;;;5031773;28;20022;-70
2023/04/13 09:32:47;;;;;;;10.38;4.85;;;9.60;99.90;;;;;;5028839;28;20041;-73
2023/04/13 09:35:13;;;;;;;7.30;4.00;;;9.70;99.90;;;;;;5030693;28;20378;-70
2023/04/13 09:37:41;;;;;;;8.40;3.70;;;9.80;99.90;;;;;;5031987;28;20080;-72
2023/04/13 09:40:11;;;;;;;10.52;3.85;;;10.00;99.90;;;;;;5030735;28;20052;-70
2023/04/13 09:42:51;;;;;;;8.38;3.00;;;10.00;99.90;;;;;;5031781;28;20018;-71
2023/04/13 09:45:17;;;;;;;9.40;4.00;;;9.90;99.90;;;;;;5030972;28;20056;-74
2023/04/13 09:47:44;;;;;;;8.00;4.35;;;9.80;99.90;;;;;;5032575;28;20022;-73
2023/04/13 09:50:17;;;;;;;12.45;3.95;;;9.80;99.90;;;;;;5031765;28;20018;-73
2023/04/13 09:52:44;;;;;;;9.63;4.47;;;9.80;99.90;;;;;;5031740;28;20046;-74
2023/04/13 09:55:16;;;;;;;9.40;3.83;;;9.90;99.90;;;;;;5029122;28;20034;-71
2023/04/13 09:57:42;;;;;;;8.18;4.07;;;10.00;99.90;;;;;;5031384;28;20017;-72
2023/04/13 10:00:13;;;;;;;10.35;5.35;;;10.00;99.90;;;;;;5032082;28;20022;-73
2023/04/13 10:02:40;;;;;;;9.80;4.63;;;10.00;99.90;;;;;;5032536;28;20108;-73
2023/04/13 10:05:08;;;;;;;8.20;4.43;;;10.00;99.90;;;;;;5032008;28;20416;-70
2023/04/13 10:07:36;;;;;;;8.52;4.38;;;10.00;99.90;;;;;;5029582;28;20018;-73
2023/04/13 10:10:06;;;;;;;6.45;3.33;;;10.00;99.90;;;;;;5031612;28;20046;-73
2023/04/13 10:12:35;;;;;;;12.85;3.47;;;10.00;99.90;;;;;;5024653;28;20068;-71
2023/04/13 10:15:12;;;;;;;7.32;3.63;;;9.90;99.90;;;;;;5026548;28;20073;-76
2023/04/13 10:18:24;;;;;;;7.07;3.42;;;9.70;99.90;;;;;;5029940;28;20026;-71
2023/04/13 10:20:51;;;;;;;8.30;3.38;;;9.80;99.90;;;;;;5031486;28;20034;-71
2023/04/13 10:23:18;;;;;;;7.22;3.72;;;9.90;99.90;;;;;;5026669;28;20034;-75
2023/04/13 10:25:52;;;;;;;6.18;4.00;;;9.90;99.90;;;;;;5030534;28;20029;-73
2023/04/13 10:28:18;;;;;;;8.82;3.83;;;9.90;99.90;;;;;;5028730;28;20037;-73
2023/04/13 10:30:51;;;;;;;8.10;3.78;;;10.00;99.90;;;;;;5031338;28;20029;-69
2023/04/13 10:33:17;;;;;;;7.22;3.50;;;10.10;99.90;;;;;;5031002;28;20025;-72
2023/04/13 10:35:57;;;;;;;8.25;3.38;;;10.00;99.90;;;;;;5030752;28;20105;-73
2023/04/13 10:38:23;;;;;;;8.55;3.50;;;10.00;99.90;;;;;;5028595;28;20045;-71
2023/04/13 10:40:49;;;;;;;9.73;3.72;;;10.00;99.90;;;;;;5031864;28;20036;-72
2023/04/13 10:43:29;;;;;;;5.82;3.35;;;10.00;99.90;;;;;;5029006;28;20030;-76
2023/04/13 10:46:05;;;;;;;10.07;4.10;;;10.10;99.90;;;;;;5030995;28;20013;-72
2023/04/13 10:48:30;;;;;;;13.48;4.30;;;10.20;99.90;;;;;;5030889;28;20042;-74
2023/04/13 10:50:59;;;;;;;10.65;3.97;;;10.20;99.90;;;;;;5030802;28;20029;-74
2023/04/13 10:53:29;;;;;;;7.97;3.88;;;10.30;99.90;;;;;;5034066;28;20021;-74
2023/04/13 10:55:54;;;;;;;6.32;3.47;;;10.30;99.90;;;;;;5032061;28;20096;-74
2023/04/13 10:58:21;;;;;;;8.77;4.65;;;10.40;99.90;;;;;;5034745;28;20017;-77
2023/04/13 11:00:48;;;;;;;9.63;4.05;;;10.40;99.90;;;;;;5032436;28;20034;-74
2023/04/13 11:03:14;;;;;;;8.52;4.50;;;10.50;99.90;;;;;;5033248;28;20030;-75
2023/04/13 11:05:40;;;;;;;8.23;3.75;;;10.50;99.90;;;;;;5033769;28;20048;-74
2023/04/13 11:08:07;;;;;;;5.68;3.83;;;10.70;99.90;;;;;;5033930;28;20021;-75
2023/04/13 11:10:33;;;;;;;10.65;3.47;;;10.80;99.90;;;;;;5034682;28;20040;-73
2023/04/13 11:12:58;;;;;;;6.60;3.97;;;11.30;99.90;;;;;;5032410;28;20085;-74
2023/04/13 11:15:27;;;;;;;7.63;4.07;;;11.80;99.90;;;;;;5035142;28;20046;-73
2023/04/13 11:17:55;;;;;;;7.97;4.18;;;11.90;99.90;;;;;;5034906;28;20108;-74
2023/04/13 11:20:34;;;;;;;6.80;3.75;;;11.90;99.90;;;;;;5035230;28;20050;-73
2023/04/13 11:23:02;;;;;;;5.72;3.63;;;11.80;99.90;;;;;;5032387;28;20040;-74
2023/04/13 11:25:29;;;;;;;6.57;3.53;;;11.80;99.90;;;;;;5033693;28;20466;-70
2023/04/13 11:27:59;;;;;;;4.90;2.95;;;11.90;99.90;;;;;;5035301;28;20192;-72
2023/04/13 11:30:25;;;;;;;6.85;3.05;;;12.00;99.90;;;;;;5035228;28;20033;-72
2023/04/13 11:32:54;;;;;;;6.75;3.60;;;12.10;99.90;;;;;;5033228;28;20029;-72
2023/04/13 11:35:22;;;;;;;3.25;2.60;;;12.20;99.90;;;;;;5032601;28;20060;-74
2023/04/13 11:37:51;;;;;;;4.43;2.90;;;12.60;99.90;;;;;;5034471;28;20022;-73
2023/04/13 11:40:24;;;;;;;4.25;2.72;;;13.00;99.90;;;;;;5034658;28;20029;-72
2023/04/13 11:42:52;;;;;;;7.18;3.50;;;13.20;99.90;;;;;;5032456;28;20082;-70
2023/04/13 11:45:20;;;;;;;5.85;3.20;;;13.20;99.90;;;;;;5027482;28;20030;-68
2023/04/13 11:47:46;;;;;;;4.78;2.33;;;13.10;99.90;;;;;;5030701;28;20030;-70
2023/04/13 11:50:13;;;;;;;4.88;2.20;;;12.80;99.90;;;;;;5031528;28;20014;-70
2023/04/13 11:52:40;;;;;;;2.70;1.90;;;12.70;99.90;;;;;;5034752;28;20021;-71
2023/04/13 11:55:07;;;;;;;6.35;2.13;;;12.80;99.90;;;;;;5034174;28;20034;-74
2023/04/13 11:57:33;;;;;;;4.32;2.10;;;13.00;99.90;;;;;;5030721;28;20410;-74
2023/04/13 11:59:59;;;;;;;3.00;2.28;;;13.30;99.90;;;;;;5029370;28;20639;-73
2023/04/13 12:02:30;;;;;;;3.88;2.50;;;13.20;99.90;;;;;;5032859;28;20018;-71
2023/04/13 12:04:56;;;;;;;5.20;2.50;;;12.80;99.90;;;;;;5033926;28;20056;-71
2023/04/13 12:07:23;;;;;;;4.00;2.50;;;12.70;99.90;;;;;;5032626;28;20030;-72
2023/04/13 12:09:52;;;;;;;6.53;2.50;;;12.70;99.90;;;;;;5034280;28;20045;-70
2023/04/13 12:12:21;;;;;;;2.90;2.15;;;12.70;99.90;;;;;;5033388;28;20018;-71
2023/04/13 12:14:57;;;;;;;3.72;2.70;;;12.40;99.90;;;;;;5033611;28;20060;-72
2023/04/13 12:17:33;;;;;;;4.85;2.83;;;12.10;99.90;;;;;;5032627;28;20169;-71
2023/04/13 12:20:01;;;;;;;5.25;3.35;;;11.90;99.90;;;;;;5032665;28;20030;-73
2023/04/13 12:22:37;;;;;;;6.13;3.75;;;11.70;99.90;;;;;;5033095;28;20030;-70
2023/04/13 12:25:16;;;;;;;7.07;3.55;;;11.40;99.90;;;;;;5032713;28;20025;-70
2023/04/13 12:27:42;;;;;;;5.60;3.47;;;11.30;99.90;;;;;;5034152;28;20030;-69
2023/04/13 12:30:15;;;;;;;7.70;3.75;;;11.10;99.90;;;;;;5031849;28;20084;-72
2023/04/13 12:32:45;;;;;;;7.05;3.50;;;10.90;99.90;;;;;;5034267;28;20021;-69
2023/04/13 12:35:12;;;;;;;6.20;3.22;;;10.80;99.90;;;;;;5033288;28;20037;-71
2023/04/13 12:37:41;;;;;;;12.35;2.80;;;10.50;99.90;;;;;;5033934;28;20037;-70
2023/04/13 12:40:11;;;;;;;9.45;2.30;;;10.00;99.90;;;;;;5033799;28;20033;-70
2023/04/13 12:42:39;;;;;;;12.65;2.30;;;9.70;99.90;;;;;;5029139;28;20021;-70
2023/04/13 12:45:06;;;;;;;6.65;2.13;;;9.50;99.90;;;;;;5022876;28;20259;-74
2023/04/13 12:47:32;;;;;;;5.00;2.28;;;9.20;99.90;;;;;;5032955;28;20501;-72
2023/04/13 12:49:57;;;;;;;3.95;2.30;;;9.20;99.90;;;;;;5032830;28;20022;-72